Time;durP1;ratioP1;P1;durP2;ratioP2;P2;SDS_P1;SDS_P2;PMS_P1;PMS_P2;Temp;Humidity;BMP_temperature;BMP_pressure;BME280_temperature;BME280_humidity;BME280_pressure;Samples;Min_cycle;Max_cycle;Signal;HPM_P1;HPM_P2
2023/03/01 00:01:07;;;;;;;123.10;34.60;;;;;;;-4.94;100.00;100764.42;104897;1298;23030;-34
2023/03/01 00:03:32;;;;;;;104.70;32.90;;;;;;;-4.95;100.00;100762.38;104795;1288;23960;-35
2023/03/01 00:05:59;;;;;;;123.40;35.80;;;;;;;-4.91;100.00;100763.43;104866;1297;22667;-30
2023/03/01 00:08:25;;;;;;;158.30;42.70;;;;;;;-4.90;100.00;100764.63;104646;1302;23032;-29
2023/03/01 00:11:01;;;;;;;95.20;28.00;;;;;;;-4.88;100.00;100764.57;104870;1302;23121;-38
2023/03/01 00:13:27;;;;;;;173.50;44.70;;;;;;;-4.88;100.00;100767.50;104942;1292;22943;-34
2023/03/01 00:15:53;;;;;;;148.10;35.90;;;;;;;-4.92;100.00;100764.88;104816;1302;24496;-29
2023/03/01 00:18:19;;;;;;;129.30;35.70;;;;;;;-4.93;100.00;100758.63;104894;1300;22806;-34
2023/03/01 00:20:51;;;;;;;126.70;37.60;;;;;;;-4.92;100.00;100760.35;104818;1302;23178;-32
2023/03/01 00:23:17;;;;;;;200.30;57.80;;;;;;;-4.96;100.00;100759.62;104843;1302;22546;-30
2023/03/01 00:25:43;;;;;;;103.30;33.30;;;;;;;-5.03;100.00;100756.11;104829;1302;22652;-30
2023/03/01 00:28:09;;;;;;;75.10;24.80;;;;;;;-5.05;100.00;100746.06;104854;1300;22981;-34
2023/03/01 00:30:35;;;;;;;74.90;24.30;;;;;;;-5.02;100.00;100750.45;104794;1292;23169;-36
2023/03/01 00:33:01;;;;;;;102.80;32.30;;;;;;;-5.02;100.00;100749.41;104841;1298;23039;-29
2023/03/01 00:35:26;;;;;;;90.00;32.40;;;;;;;-5.09;100.00;100747.09;104902;1292;23168;-30
2023/03/01 00:37:57;;;;;;;71.50;23.80;;;;;;;-5.20;100.00;100746.48;104778;1302;22656;-29
2023/03/01 00:40:24;;;;;;;102.10;28.70;;;;;;;-5.25;100.00;100744.61;104798;1301;22682;-30
2023/03/01 00:42:50;;;;;;;111.50;34.20;;;;;;;-5.29;100.00;100742.65;104846;1300;25345;-34
2023/03/01 00:45:16;;;;;;;74.70;27.10;;;;;;;-5.32;100.00;100741.90;105018;1302;22777;-34
2023/03/01 00:47:42;;;;;;;70.80;24.70;;;;;;;-5.28;100.00;100737.74;104871;1303;23038;-34
2023/03/01 00:50:08;;;;;;;62.40;21.80;;;;;;;-5.26;100.00;100737.50;104816;1302;24414;-33
2023/03/01 00:52:34;;;;;;;83.80;27.70;;;;;;;-5.27;100.00;100736.14;104832;1299;22809;-30
2023/03/01 00:55:00;;;;;;;80.60;22.70;;;;;;;-5.30;100.00;100730.17;104873;1301;22660;-35
2023/03/01 00:57:26;;;;;;;86.30;26.10;;;;;;;-5.35;100.00;100736.48;104905;1292;22700;-30
2023/03/01 00:59:53;;;;;;;87.10;30.10;;;;;;;-5.35;100.00;100731.38;104892;1295;22657;-30
2023/03/01 01:02:19;;;;;;;78.90;25.90;;;;;;;-5.36;100.00;100727.94;104794;1299;22551;-32
2023/03/01 01:04:45;;;;;;;85.10;29.00;;;;;;;-5.35;100.00;100728.09;104837;1299;23004;-35
2023/03/01 01:07:11;;;;;;;92.10;30.00;;;;;;;-5.37;100.00;100729.23;104924;1302;22676;-34
2023/03/01 01:09:37;;;;;;;76.90;26.60;;;;;;;-5.44;100.00;100725.13;104865;1292;22539;-33
2023/03/01 01:12:03;;;;;;;66.90;23.30;;;;;;;-5.43;100.00;100722.32;104879;1302;22704;-29
2023/03/01 01:14:29;;;;;;;81.30;26.20;;;;;;;-5.30;100.00;100726.14;104733;1302;22660;-31
2023/03/01 01:16:55;;;;;;;81.70;23.50;;;;;;;-5.37;100.00;100720.32;104811;1299;23027;-33
2023/03/01 01:19:21;;;;;;;80.10;27.40;;;;;;;-5.42;100.00;100709.86;104523;1303;23180;-29
2023/03/01 01:21:48;;;;;;;88.80;30.70;;;;;;;-5.43;100.00;100716.35;104884;1292;22659;-30
2023/03/01 01:24:14;;;;;;;72.00;25.50;;;;;;;-5.45;100.00;100716.12;104993;1299;22678;-35
2023/03/01 01:26:40;;;;;;;92.50;31.70;;;;;;;-5.45;100.00;100709.49;104547;1295;25230;-30
2023/03/01 01:29:06;;;;;;;102.10;34.80;;;;;;;-5.44;100.00;100702.60;104750;1302;23035;-35
2023/03/01 01:31:32;;;;;;;128.20;40.00;;;;;;;-5.39;100.00;100701.39;104907;1301;23039;-29
2023/03/01 01:33:59;;;;;;;83.40;33.40;;;;;;;-5.37;100.00;100694.69;104833;1302;22792;-34
2023/03/01 01:36:24;;;;;;;94.00;29.80;;;;;;;-5.39;100.00;100691.93;104892;1292;23035;-30
2023/03/01 01:38:50;;;;;;;71.70;27.50;;;;;;;-5.39;100.00;100695.11;104809;1301;22666;-30
2023/03/01 01:41:16;;;;;;;102.60;30.90;;;;;;;-5.36;100.00;100701.79;104819;1301;22660;-35
2023/03/01 01:43:48;;;;;;;63.60;24.10;;;;;;;-5.38;100.00;100701.34;104895;1301;22657;-33
2023/03/01 01:46:30;;;;;;;97.00;30.80;;;;;;;-5.40;100.00;100693.73;104898;1302;22627;-30
2023/03/01 01:49:00;;;;;;;86.10;29.50;;;;;;;-5.45;100.00;100684.87;104822;1301;24426;-33
2023/03/01 01:51:28;;;;;;;80.30;26.20;;;;;;;-5.49;100.00;100683.63;104786;1293;22816;-34
2023/03/01 01:53:59;;;;;;;93.20;32.50;;;;;;;-5.49;100.00;100683.97;104909;1300;24422;-30
2023/03/01 01:56:25;;;;;;;70.30;23.00;;;;;;;-5.53;100.00;100686.07;104979;1302;22655;-34
2023/03/01 01:58:51;;;;;;;86.30;24.90;;;;;;;-5.48;100.00;100682.56;104760;1303;22556;-34
2023/03/01 02:01:16;;;;;;;105.60;36.30;;;;;;;-5.48;100.00;100678.36;104869;1300;22779;-33
2023/03/01 02:03:43;;;;;;;95.10;29.80;;;;;;;-5.51;100.00;100673.75;104825;1300;22629;-29
2023/03/01 02:06:28;;;;;;;111.40;40.20;;;;;;;-5.56;100.00;100673.10;104890;1293;22557;-29
2023/03/01 02:08:55;;;;;;;95.90;34.30;;;;;;;-5.71;100.00;100673.86;104805;1302;24375;-34
2023/03/01 02:11:20;;;;;;;114.70;36.20;;;;;;;-5.81;100.00;100682.51;104879;1303;23163;-34
2023/03/01 02:13:46;;;;;;;89.80;30.40;;;;;;;-5.91;100.00;100686.21;104888;1301;22925;-29
2023/03/01 02:16:13;;;;;;;104.50;33.10;;;;;;;-5.95;100.00;100687.94;104786;1301;22663;-33
2023/03/01 02:18:39;;;;;;;111.30;35.80;;;;;;;-5.94;100.00;100685.66;104804;1301;22937;-28
2023/03/01 02:21:15;;;;;;;98.30;31.20;;;;;;;-5.96;100.00;100690.25;104815;1289;22676;-32
2023/03/01 02:23:41;;;;;;;57.70;22.80;;;;;;;-5.97;100.00;100691.89;104837;1293;22565;-39
2023/03/01 02:26:29;;;;;;;60.10;22.20;;;;;;;-5.92;100.00;100695.70;104816;1303;22669;-32
2023/03/01 02:28:55;;;;;;;72.60;24.30;;;;;;;-5.88;100.00;100700.54;104692;1292;22556;-30
2023/03/01 02:33:50;;;;;;;40.00;19.80;;;;;;;-5.91;100.00;100713.55;104768;1292;25304;-29
2023/03/01 02:36:18;;;;;;;61.70;22.90;;;;;;;-5.86;100.00;100716.71;104471;1303;24963;-34
2023/03/01 02:38:44;;;;;;;105.00;35.60;;;;;;;-5.82;100.00;100717.60;104730;1301;23279;-29
2023/03/01 02:41:11;;;;;;;97.40;31.40;;;;;;;-5.84;100.00;100717.31;104667;1302;23025;-29
2023/03/01 02:43:37;;;;;;;64.50;25.70;;;;;;;-5.84;100.00;100714.87;104960;1302;22663;-33
2023/03/01 02:46:13;;;;;;;67.70;24.90;;;;;;;-5.92;100.00;100711.52;104898;1302;22653;-34
2023/03/01 02:48:45;;;;;;;67.70;26.50;;;;;;;-5.91;100.00;100704.49;104820;1301;22988;-34
2023/03/01 02:51:34;;;;;;;84.60;28.00;;;;;;;-5.90;100.00;100698.00;104885;1292;24277;-37
2023/03/01 02:54:15;;;;;;;95.00;33.00;;;;;;;-5.80;100.00;100692.91;105033;1295;22668;-34
2023/03/01 02:56:41;;;;;;;101.20;34.00;;;;;;;-5.82;100.00;100697.35;104852;1303;22653;-29
2023/03/01 02:59:07;;;;;;;114.10;31.30;;;;;;;-5.82;100.00;100693.02;104796;1302;23026;-36
2023/03/01 03:01:36;;;;;;;81.90;30.20;;;;;;;-5.76;100.00;100689.27;104807;1302;22549;-35
2023/03/01 03:04:06;;;;;;;121.80;36.40;;;;;;;-5.69;100.00;100687.59;104832;1302;22893;-28
2023/03/01 03:06:32;;;;;;;108.70;32.80;;;;;;;-5.68;100.00;100686.13;104608;1302;23284;-28
2023/03/01 03:08:58;;;;;;;107.60;34.60;;;;;;;-5.69;100.00;100684.59;104775;1299;22964;-29
2023/03/01 03:11:24;;;;;;;89.30;28.70;;;;;;;-5.78;100.00;100686.39;104748;1302;22997;-33
2023/03/01 03:13:49;;;;;;;88.90;33.00;;;;;;;-5.87;100.00;100689.67;104666;1303;22783;-28
2023/03/01 03:16:15;;;;;;;109.10;35.30;;;;;;;-5.91;100.00;100695.45;104834;1302;22662;-28
2023/03/01 03:18:41;;;;;;;69.60;23.50;;;;;;;-5.98;100.00;100690.70;104773;1302;23054;-33
2023/03/01 03:21:10;;;;;;;65.20;23.90;;;;;;;-5.89;100.00;100688.04;104963;1302;22554;-34
2023/03/01 03:23:36;;;;;;;57.80;21.10;;;;;;;-5.88;100.00;100688.17;104798;1292;23160;-28
2023/03/01 03:26:03;;;;;;;55.80;21.60;;;;;;;-5.92;100.00;100689.70;104773;1295;22939;-33
2023/03/01 03:28:30;;;;;;;84.80;25.50;;;;;;;-5.89;100.00;100689.06;104811;1299;22657;-28
2023/03/01 03:30:56;;;;;;;65.70;22.50;;;;;;;-5.93;100.00;100682.61;104800;1292;22989;-34
2023/03/01 03:33:22;;;;;;;77.60;27.20;;;;;;;-5.97;100.00;100679.34;104895;1302;22669;-35
2023/03/01 03:35:48;;;;;;;62.10;20.60;;;;;;;-6.03;100.00;100676.05;104757;1292;22559;-35
2023/03/01 03:38:15;;;;;;;72.00;25.90;;;;;;;-6.04;100.00;100678.91;104913;1302;22788;-29
2023/03/01 03:40:44;;;;;;;106.90;33.70;;;;;;;-6.04;100.00;100683.09;104847;1292;24225;-29
2023/03/01 03:43:15;;;;;;;69.40;23.00;;;;;;;-6.15;100.00;100687.31;105024;1289;23165;-30
2023/03/01 03:45:41;;;;;;;66.20;23.90;;;;;;;-6.12;100.00;100684.95;104826;1292;23291;-29
2023/03/01 03:48:09;;;;;;;94.00;31.30;;;;;;;-6.12;100.00;100679.38;104763;1295;22660;-29
2023/03/01 03:50:34;;;;;;;64.00;22.10;;;;;;;-6.22;100.00;100674.88;104792;1296;22776;-30
2023/03/01 03:53:01;;;;;;;98.80;32.80;;;;;;;-6.24;100.00;100672.86;104788;1289;22560;-30
2023/03/01 03:55:30;;;;;;;101.00;34.80;;;;;;;-6.35;100.00;100671.70;104936;1298;22798;-34
2023/03/01 03:58:02;;;;;;;97.40;32.10;;;;;;;-6.44;100.00;100668.58;104814;1291;22538;-30
2023/03/01 04:00:28;;;;;;;88.20;29.70;;;;;;;-6.44;100.00;100667.00;104829;1296;25447;-30
2023/03/01 04:04:38;;;;;;;59.20;22.30;;;;;;;-6.45;100.00;100662.67;104147;1307;545601;-34
2023/03/01 04:07:04;;;;;;;89.30;30.80;;;;;;;-6.48;100.00;100668.39;104244;1301;22550;-34
2023/03/01 04:09:30;;;;;;;80.10;25.60;;;;;;;-6.61;100.00;100674.78;104344;1292;24810;-33
2023/03/01 04:11:56;;;;;;;45.30;17.20;;;;;;;-6.68;100.00;100677.11;104330;1305;22831;-30
2023/03/01 04:14:22;;;;;;;62.20;23.00;;;;;;;-6.63;100.00;100672.94;104266;1299;22947;-32
2023/03/01 04:16:47;;;;;;;63.90;22.70;;;;;;;-6.51;100.00;100685.04;104254;1298;22817;-35
2023/03/01 04:19:15;;;;;;;97.20;33.30;;;;;;;-6.49;100.00;100691.05;104180;1299;414280;-35
2023/03/01 04:21:40;;;;;;;73.20;26.00;;;;;;;-6.48;100.00;100688.58;104484;1304;22895;-33
2023/03/01 04:24:07;;;;;;;71.90;27.20;;;;;;;-6.49;100.00;100688.61;104542;1292;22789;-29
2023/03/01 04:26:32;;;;;;;66.40;25.80;;;;;;;-6.50;100.00;100686.04;104444;1305;25562;-32
2023/03/01 04:28:58;;;;;;;85.70;31.20;;;;;;;-6.49;100.00;100682.17;104342;1304;24902;-29
2023/03/01 04:31:24;;;;;;;69.90;25.30;;;;;;;-6.50;100.00;100680.47;104528;1295;23041;-34
2023/03/01 04:33:55;;;;;;;76.10;25.80;;;;;;;-6.50;100.00;100676.80;104562;1295;24324;-30
2023/03/01 04:36:22;;;;;;;70.40;24.60;;;;;;;-6.51;100.00;100669.90;104446;1305;22808;-32
2023/03/01 05:16:47;;;;;;;221.50;80.90;;;;;;;-103.84;19.20;20131.04;101501;1296;1546422;-29
2023/03/01 05:19:15;;;;;;;195.10;66.10;;;;;;;-128.00;-1.00;-1.00;100783;1303;1003859;-30
2023/03/01 05:24:11;;;;;;;329.10;87.60;;;;;;;-128.00;-1.00;-1.00;101125;1298;1005003;-30
2023/03/01 05:26:40;;;;;;;346.70;80.30;;;;;;;-128.00;-1.00;-1.00;101255;1303;1004832;-29
2023/03/01 05:29:05;;;;;;;143.30;43.30;;;;;;;-128.00;-1.00;-1.00;101119;1303;1004499;-34
2023/03/01 05:31:31;;;;;;;100.40;28.70;;;;;;;-128.00;-1.00;-1.00;101110;1300;1004667;-34
2023/03/01 05:33:57;;;;;;;152.50;45.50;;;;;;;-128.00;-1.00;-1.00;101148;1303;1005051;-29
2023/03/01 05:36:23;;;;;;;123.00;39.70;;;;;;;-128.00;-1.00;-1.00;101045;1303;1005366;-30
2023/03/01 05:38:49;;;;;;;133.40;42.20;;;;;;;-128.00;-1.00;-1.00;101292;1303;1004775;-34
2023/03/01 05:41:16;;;;;;;193.50;53.90;;;;;;;-128.00;-1.00;-1.00;100872;1303;1005343;-33
2023/03/01 05:43:44;;;;;;;165.90;45.70;;;;;;;-128.00;-1.00;-1.00;101224;1303;1005075;-34
2023/03/01 05:46:12;;;;;;;142.10;44.20;;;;;;;-128.00;-1.00;-1.00;101048;1303;1005118;-29
2023/03/01 05:48:38;;;;;;;180.00;54.30;;;;;;;-128.00;-1.00;-1.00;101220;1298;1004396;-33
2023/03/01 05:51:04;;;;;;;156.80;49.10;;;;;;;-128.00;-1.00;-1.00;101119;1303;1004769;-29
2023/03/01 05:53:30;;;;;;;132.80;43.00;;;;;;;-128.00;-1.00;-1.00;101249;1303;1004444;-30
2023/03/01 05:55:56;;;;;;;161.30;52.80;;;;;;;-128.00;-1.00;-1.00;101155;1303;1003621;-36
2023/03/01 05:58:22;;;;;;;154.10;54.90;;;;;;;-128.00;-1.00;-1.00;101246;1303;1004483;-34
2023/03/01 06:00:48;;;;;;;160.40;50.40;;;;;;;-128.00;-1.00;-1.00;101004;1303;1004960;-30
2023/03/01 06:03:15;;;;;;;176.80;52.60;;;;;;;-128.00;-1.00;-1.00;100812;1303;1004351;-30
2023/03/01 06:05:41;;;;;;;193.40;67.20;;;;;;;-128.00;-1.00;-1.00;100986;1302;1004763;-34
2023/03/01 06:08:09;;;;;;;126.00;44.30;;;;;;;-128.00;-1.00;-1.00;101140;1303;1004621;-29
2023/03/01 06:10:35;;;;;;;183.60;53.80;;;;;;;-128.00;-1.00;-1.00;100985;1303;1004475;-29
2023/03/01 06:13:01;;;;;;;155.50;49.60;;;;;;;-128.00;-1.00;-1.00;100923;1303;1003640;-33
2023/03/01 06:15:26;;;;;;;191.20;58.30;;;;;;;-128.00;-1.00;-1.00;101079;1303;1004666;-30
2023/03/01 06:17:54;;;;;;;151.50;53.20;;;;;;;-128.00;-1.00;-1.00;101171;1304;1004093;-28
2023/03/01 06:20:22;;;;;;;163.10;47.50;;;;;;;-128.00;-1.00;-1.00;100955;1304;1005522;-33
2023/03/01 06:22:49;;;;;;;180.60;50.70;;;;;;;-128.00;-1.00;-1.00;101256;1291;1003488;-36
2023/03/01 06:25:17;;;;;;;137.60;45.90;;;;;;;-128.00;-1.00;-1.00;101185;1304;1004557;-33
2023/03/01 06:27:42;;;;;;;168.40;55.60;;;;;;;-128.00;-1.00;-1.00;100055;1304;1004134;-29
2023/03/01 06:30:13;;;;;;;83.30;30.80;;;;;;;-128.00;-1.00;-1.00;101170;1304;1005050;-33
2023/03/01 06:32:41;;;;;;;145.70;44.60;;;;;;;-128.00;-1.00;-1.00;101206;1303;1004285;-30
2023/03/01 06:35:08;;;;;;;102.30;35.40;;;;;;;-128.00;-1.00;-1.00;101148;1296;1003719;-34
2023/03/01 06:37:35;;;;;;;134.50;43.90;;;;;;;-128.00;-1.00;-1.00;101092;1304;1005030;-33
2023/03/01 06:40:07;;;;;;;108.50;38.10;;;;;;;-128.00;-1.00;-1.00;101163;1304;1003530;-34
2023/03/01 06:42:40;;;;;;;160.00;56.20;;;;;;;-128.00;-1.00;-1.00;101134;1298;1004498;-29
2023/03/01 06:45:06;;;;;;;129.80;40.00;;;;;;;-128.00;-1.00;-1.00;100907;1298;1004232;-28
2023/03/01 06:47:32;;;;;;;122.80;43.60;;;;;;;-128.00;-1.00;-1.00;101215;1304;1004914;-29
2023/03/01 06:49:59;;;;;;;145.30;51.60;;;;;;;-128.00;-1.00;-1.00;101162;1304;1003810;-33
2023/03/01 06:52:25;;;;;;;161.60;54.60;;;;;;;-128.00;-1.00;-1.00;100915;1304;1004730;-33
2023/03/01 06:54:51;;;;;;;204.40;69.60;;;;;;;-128.00;-1.00;-1.00;101100;1304;1004247;-29
2023/03/01 06:57:17;;;;;;;138.90;51.20;;;;;;;-128.00;-1.00;-1.00;101168;1304;1004402;-33
2023/03/01 06:59:42;;;;;;;209.70;75.40;;;;;;;-128.00;-1.00;-1.00;100984;1303;1003819;-28
2023/03/01 07:02:12;;;;;;;193.10;70.10;;;;;;;-128.00;-1.00;-1.00;101297;1304;1003156;-34
2023/03/01 07:04:38;;;;;;;184.50;61.00;;;;;;;-128.00;-1.00;-1.00;101135;1304;1003215;-30
2023/03/01 07:07:04;;;;;;;145.30;54.70;;;;;;;-128.00;-1.00;-1.00;101347;1304;1004161;-29
2023/03/01 07:09:30;;;;;;;185.50;69.20;;;;;;;-128.00;-1.00;-1.00;101336;1304;1003615;-28
2023/03/01 07:11:56;;;;;;;159.70;60.50;;;;;;;-128.00;-1.00;-1.00;101302;1300;1003113;-30
2023/03/01 07:14:25;;;;;;;201.40;68.50;;;;;;;-128.00;-1.00;-1.00;101302;1304;1003233;-34
2023/03/01 07:16:54;;;;;;;199.40;70.00;;;;;;;-128.00;-1.00;-1.00;101283;1304;1002626;-34
2023/03/01 07:19:20;;;;;;;225.40;73.80;;;;;;;-128.00;-1.00;-1.00;101151;1304;1004344;-34
2023/03/01 07:21:47;;;;;;;182.40;65.90;;;;;;;-128.00;-1.00;-1.00;101165;1301;1002065;-35
2023/03/01 07:24:13;;;;;;;232.00;81.00;;;;;;;-128.00;-1.00;-1.00;101327;1304;1004365;-30
2023/03/01 07:26:39;;;;;;;181.60;63.20;;;;;;;-128.00;-1.00;-1.00;101274;1304;1003682;-34
2023/03/01 07:29:06;;;;;;;196.70;76.40;;;;;;;-128.00;-1.00;-1.00;101319;1303;1003417;-30
2023/03/01 07:31:32;;;;;;;146.60;50.80;;;;;;;-128.00;-1.00;-1.00;101255;1303;1003059;-35
2023/03/01 07:33:57;;;;;;;173.20;64.80;;;;;;;-128.00;-1.00;-1.00;101318;1304;1004089;-29
2023/03/01 07:36:23;;;;;;;130.50;52.90;;;;;;;-128.00;-1.00;-1.00;101301;1304;1003137;-30
2023/03/01 07:38:49;;;;;;;146.90;55.90;;;;;;;-128.00;-1.00;-1.00;101275;1304;1003470;-35
2023/03/01 07:41:15;;;;;;;131.50;49.50;;;;;;;-128.00;-1.00;-1.00;101329;1304;1003506;-35
2023/03/01 07:43:41;;;;;;;131.00;49.90;;;;;;;-128.00;-1.00;-1.00;101438;1304;1003801;-31
2023/03/01 07:46:07;;;;;;;128.50;48.80;;;;;;;-128.00;-1.00;-1.00;101056;1304;1002194;-35
2023/03/01 07:48:33;;;;;;;99.40;41.30;;;;;;;-128.00;-1.00;-1.00;101313;1304;1003462;-35
2023/03/01 07:51:00;;;;;;;96.40;38.30;;;;;;;-128.00;-1.00;-1.00;101268;1304;1003619;-32
2023/03/01 07:53:26;;;;;;;116.00;45.30;;;;;;;-128.00;-1.00;-1.00;101136;1304;1004343;-34
2023/03/01 07:56:05;;;;;;;152.30;56.90;;;;;;;-128.00;-1.00;-1.00;101339;1304;1002572;-35
2023/03/01 07:58:30;;;;;;;113.60;41.90;;;;;;;-128.00;-1.00;-1.00;101354;1304;1003642;-31
2023/03/01 08:00:57;;;;;;;74.10;26.70;;;;;;;-128.00;-1.00;-1.00;101338;1304;1005288;-35
2023/03/01 08:03:23;;;;;;;87.50;34.80;;;;;;;-128.00;-1.00;-1.00;101356;1304;1005055;-35
2023/03/01 08:05:48;;;;;;;52.80;25.70;;;;;;;-128.00;-1.00;-1.00;101262;1304;1003405;-31
2023/03/01 08:08:14;;;;;;;64.60;27.10;;;;;;;-128.00;-1.00;-1.00;101278;1304;1003882;-33
2023/03/01 08:10:40;;;;;;;75.00;27.60;;;;;;;-128.00;-1.00;-1.00;101297;1304;1002830;-32
2023/03/01 08:13:06;;;;;;;68.60;32.00;;;;;;;-128.00;-1.00;-1.00;101316;1304;1003389;-31
2023/03/01 08:15:31;;;;;;;88.70;37.70;;;;;;;-128.00;-1.00;-1.00;101230;1304;1003470;-32
2023/03/01 08:17:57;;;;;;;94.50;41.40;;;;;;;-128.00;-1.00;-1.00;101380;1282;1003322;-32
2023/03/01 08:20:23;;;;;;;102.10;47.60;;;;;;;-128.00;-1.00;-1.00;101353;1304;1003115;-38
2023/03/01 08:22:50;;;;;;;132.30;55.70;;;;;;;-128.00;-1.00;-1.00;101420;1303;1004009;-32
2023/03/01 08:25:16;;;;;;;116.70;49.60;;;;;;;-128.00;-1.00;-1.00;101388;1304;1004146;-32
2023/03/01 08:27:42;;;;;;;90.90;42.00;;;;;;;-128.00;-1.00;-1.00;101320;1304;1004275;-30
2023/03/01 08:30:08;;;;;;;71.60;34.90;;;;;;;-128.00;-1.00;-1.00;101344;1304;1002729;-35
2023/03/01 08:32:38;;;;;;;72.30;36.10;;;;;;;-128.00;-1.00;-1.00;101304;1304;1003291;-31
2023/03/01 08:35:04;;;;;;;41.00;17.90;;;;;;;-128.00;-1.00;-1.00;100985;1304;1004725;-31
2023/03/01 08:37:33;;;;;;;78.50;33.50;;;;;;;-128.00;-1.00;-1.00;101138;1303;1003340;-35
2023/03/01 08:40:00;;;;;;;54.60;24.10;;;;;;;-128.00;-1.00;-1.00;101130;1283;1003357;-32
2023/03/01 08:42:26;;;;;;;67.60;29.80;;;;;;;-128.00;-1.00;-1.00;101301;1304;1004236;-34
2023/03/01 08:44:52;;;;;;;70.90;30.80;;;;;;;-128.00;-1.00;-1.00;101337;1298;1004517;-31
2023/03/01 08:47:18;;;;;;;78.30;34.60;;;;;;;-128.00;-1.00;-1.00;101369;1304;1003295;-31
2023/03/01 08:49:44;;;;;;;73.10;31.00;;;;;;;-128.00;-1.00;-1.00;101348;1304;1003169;-31
2023/03/01 08:52:10;;;;;;;91.50;39.00;;;;;;;-128.00;-1.00;-1.00;101371;1304;1004143;-33
2023/03/01 08:54:35;;;;;;;57.70;25.70;;;;;;;-128.00;-1.00;-1.00;101424;1304;1003400;-35
2023/03/01 08:57:02;;;;;;;69.70;29.10;;;;;;;-128.00;-1.00;-1.00;101028;1304;1003335;-34
2023/03/01 08:59:29;;;;;;;52.50;27.10;;;;;;;-128.00;-1.00;-1.00;101332;1300;1002951;-30
2023/03/01 09:01:55;;;;;;;52.20;25.00;;;;;;;-128.00;-1.00;-1.00;101131;1304;1002882;-32
2023/03/01 09:04:21;;;;;;;40.40;19.90;;;;;;;-128.00;-1.00;-1.00;101343;1298;1002849;-30
2023/03/01 09:06:48;;;;;;;46.00;21.30;;;;;;;-128.00;-1.00;-1.00;101269;1304;1003211;-30
2023/03/01 09:09:15;;;;;;;38.50;20.30;;;;;;;-128.00;-1.00;-1.00;101310;1304;1003044;-34
2023/03/01 09:11:43;;;;;;;46.90;21.60;;;;;;;-128.00;-1.00;-1.00;101315;1304;1004173;-34
2023/03/01 09:14:09;;;;;;;49.10;23.20;;;;;;;-128.00;-1.00;-1.00;101377;1304;1003079;-32
2023/03/01 09:16:35;;;;;;;34.50;18.30;;;;;;;-128.00;-1.00;-1.00;101353;1303;1002837;-31
2023/03/01 09:19:02;;;;;;;38.60;20.20;;;;;;;-128.00;-1.00;-1.00;101312;1304;1004953;-31
2023/03/01 09:21:27;;;;;;;25.90;15.00;;;;;;;-128.00;-1.00;-1.00;101311;1304;1002695;-31
2023/03/01 09:23:55;;;;;;;25.70;13.20;;;;;;;-128.00;-1.00;-1.00;101398;1304;1003401;-31
2023/03/01 09:26:22;;;;;;;14.60;9.80;;;;;;;-128.00;-1.00;-1.00;101265;1301;1004333;-31
2023/03/01 09:28:52;;;;;;;23.00;12.90;;;;;;;-128.00;-1.00;-1.00;101294;1301;1003315;-35
2023/03/01 09:31:19;;;;;;;20.10;10.20;;;;;;;-128.00;-1.00;-1.00;101283;1304;1003100;-32
2023/03/01 09:33:47;;;;;;;20.60;13.20;;;;;;;-128.00;-1.00;-1.00;101172;1304;1003417;-30
2023/03/01 09:36:16;;;;;;;31.50;15.90;;;;;;;-128.00;-1.00;-1.00;101361;1304;1003292;-36
2023/03/01 09:38:42;;;;;;;22.90;13.20;;;;;;;-128.00;-1.00;-1.00;101169;1304;1002787;-32
2023/03/01 09:41:32;;;;;;;20.30;13.40;;;;;;;-128.00;-1.00;-1.00;101297;1304;1002528;-37
2023/03/01 09:44:03;;;;;;;19.60;12.90;;;;;;;-128.00;-1.00;-1.00;101323;1304;1003642;-35
2023/03/01 09:46:29;;;;;;;25.30;14.10;;;;;;;-128.00;-1.00;-1.00;101224;1301;1004478;-35
2023/03/01 09:48:57;;;;;;;20.60;12.80;;;;;;;-128.00;-1.00;-1.00;101057;1304;1004940;-34
2023/03/01 09:51:27;;;;;;;28.30;16.80;;;;;;;-128.00;-1.00;-1.00;101452;1304;1003010;-31
2023/03/01 09:53:54;;;;;;;18.50;12.30;;;;;;;-128.00;-1.00;-1.00;101320;1304;1002893;-31
2023/03/01 09:56:42;;;;;;;34.80;15.00;;;;;;;-128.00;-1.00;-1.00;101307;1298;1002938;-35
2023/03/01 09:59:23;;;;;;;22.10;12.10;;;;;;;-128.00;-1.00;-1.00;101379;1304;1003152;-35
2023/03/01 10:02:12;;;;;;;18.00;12.30;;;;;;;-128.00;-1.00;-1.00;101137;1301;1004627;-35
2023/03/01 10:04:51;;;;;;;21.80;13.60;;;;;;;-128.00;-1.00;-1.00;101373;1304;1003057;-31
2023/03/01 10:07:26;;;;;;;18.60;12.70;;;;;;;-128.00;-1.00;-1.00;101319;1304;1003703;-32
2023/03/01 10:09:52;;;;;;;18.50;11.90;;;;;;;-128.00;-1.00;-1.00;101294;1301;1002781;-31
2023/03/01 10:12:21;;;;;;;17.60;11.70;;;;;;;-128.00;-1.00;-1.00;101384;1304;1003067;-31
2023/03/01 10:15:12;;;;;;;16.90;11.30;;;;;;;-128.00;-1.00;-1.00;101387;1301;1003532;-35
2023/03/01 10:17:47;;;;;;;16.50;11.30;;;;;;;-128.00;-1.00;-1.00;101331;1304;1003384;-32
2023/03/01 10:20:20;;;;;;;22.50;12.50;;;;;;;-128.00;-1.00;-1.00;101298;1304;1002875;-39
2023/03/01 10:22:50;;;;;;;16.00;11.20;;;;;;;-128.00;-1.00;-1.00;101277;1298;1003150;-30
2023/03/01 10:25:20;;;;;;;18.40;11.60;;;;;;;-128.00;-1.00;-1.00;101328;1304;1003620;-34
2023/03/01 10:27:52;;;;;;;18.50;12.20;;;;;;;-128.00;-1.00;-1.00;101301;1303;1003269;-36
2023/03/01 10:30:38;;;;;;;24.20;14.50;;;;;;;-128.00;-1.00;-1.00;101329;1298;1003772;-31
2023/03/01 10:33:04;;;;;;;20.60;14.50;;;;;;;-128.00;-1.00;-1.00;101299;1304;1004280;-38
2023/03/01 10:35:32;;;;;;;25.80;13.90;;;;;;;-128.00;-1.00;-1.00;101469;1304;1003712;-33
2023/03/01 10:38:06;;;;;;;26.50;13.20;;;;;;;-128.00;-1.00;-1.00;101457;1304;1003421;-32
2023/03/01 10:40:33;;;;;;;20.90;10.80;;;;;;;-128.00;-1.00;-1.00;101327;1301;1002807;-32
2023/03/01 10:43:01;;;;;;;29.90;16.10;;;;;;;-128.00;-1.00;-1.00;101526;1304;1003235;-35
2023/03/01 10:45:35;;;;;;;27.90;16.10;;;;;;;-128.00;-1.00;-1.00;101153;1304;1003025;-35
2023/03/01 10:48:23;;;;;;;27.80;14.90;;;;;;;-128.00;-1.00;-1.00;101355;1301;1003296;-32
2023/03/01 10:50:50;;;;;;;21.20;13.60;;;;;;;-128.00;-1.00;-1.00;101065;1304;1002807;-35
2023/03/01 10:53:23;;;;;;;26.30;14.80;;;;;;;-128.00;-1.00;-1.00;101200;1304;1002862;-35
2023/03/01 10:55:56;;;;;;;27.40;14.50;;;;;;;-128.00;-1.00;-1.00;101235;1301;1003694;-31
2023/03/01 10:58:22;;;;;;;;;;;;;;;-128.00;-1.00;-1.00;101286;1301;1003724;-35
2023/03/01 11:00:53;;;;;;;19.20;13.60;;;;;;;-128.00;-1.00;-1.00;101383;1304;1003666;-37
2023/03/01 11:03:23;;;;;;;21.60;13.40;;;;;;;-128.00;-1.00;-1.00;101380;1298;1003468;-37
2023/03/01 11:46:37;;;;;;;22.60;12.80;;;;;;;10.58;40.20;100494.89;104515;1297;561641;-32
2023/03/01 11:49:27;;;;;;;22.80;14.40;;;;;;;10.53;38.26;100494.73;104376;1295;401795;-33
2023/03/01 11:52:17;;;;;;;16.90;10.50;;;;;;;9.61;37.43;100490.73;104701;1299;22792;-30
2023/03/01 11:55:03;;;;;;;23.40;15.90;;;;;;;9.07;38.96;100495.30;104642;1292;22906;-31
2023/03/01 11:58:03;;;;;;;17.40;10.90;;;;;;;8.88;39.09;100499.31;104854;1298;22681;-32
2023/03/01 12:00:48;;;;;;;16.20;10.90;;;;;;;-128.00;-1.00;-1.00;101104;1304;1004364;-34
2023/03/01 12:03:43;;;;;;;21.40;13.90;;;;;;;-128.00;-1.00;-1.00;101203;1304;1005201;-32
2023/03/01 12:06:23;;;;;;;22.10;13.10;;;;;;;-128.00;-1.00;-1.00;100941;1304;1004647;-36
2023/03/01 12:09:16;;;;;;;26.80;16.20;;;;;;;-128.00;-1.00;-1.00;101102;1304;1004180;-34
2023/03/01 12:12:00;;;;;;;15.30;9.50;;;;;;;-128.00;-1.00;-1.00;101114;1304;1004298;-33
2023/03/01 12:15:05;;;;;;;18.10;10.70;;;;;;;-128.00;-1.00;-1.00;101105;1304;1004680;-34
2023/03/01 12:17:46;;;;;;;18.40;12.60;;;;;;;-128.00;-1.00;-1.00;101004;1304;1004207;-35
2023/03/01 12:20:22;;;;;;;25.50;11.90;;;;;;;-128.00;-1.00;-1.00;101029;1304;1004842;-35
2023/03/01 12:23:03;;;;;;;20.90;11.90;;;;;;;-128.00;-1.00;-1.00;101098;1301;1004597;-31
2023/03/01 12:25:38;;;;;;;22.60;12.90;;;;;;;-128.00;-1.00;-1.00;101245;1304;1004405;-31
2023/03/01 12:28:28;;;;;;;28.40;14.30;;;;;;;-128.00;-1.00;-1.00;100982;1302;1004289;-31
2023/03/01 12:31:05;;;;;;;32.10;11.90;;;;;;;-128.00;-1.00;-1.00;101122;1304;1005084;-32